Time;durP1;ratioP1;P1;durP2;ratioP2;P2;SDS_P1;SDS_P2;PMS_P1;PMS_P2;Temp;Humidity;BMP_temperature;BMP_pressure;BME280_temperature;BME280_humidity;BME280_pressure;Samples;Min_cycle;Max_cycle;Signal;HPM_P1;HPM_P2
2021/09/12 00:01:09;;;;;;;11.65;9.00;;;;;;;15.72;84.44;98798.16;4168260;28;20326;-72
2021/09/12 00:03:09;;;;;;;9.90;7.20;;;;;;;15.74;83.93;98801.38;4169836;28;20049;-72
2021/09/12 00:05:10;;;;;;;10.40;8.05;;;;;;;15.78;84.00;98799.34;4170329;28;20346;-72
2021/09/12 00:07:10;;;;;;;10.00;7.55;;;;;;;15.81;83.81;98783.81;4169880;28;20503;-72
2021/09/12 00:09:10;;;;;;;8.30;6.95;;;;;;;15.82;84.24;98783.41;4170533;28;20052;-72
2021/09/12 00:11:11;;;;;;;9.77;6.88;;;;;;;15.81;84.58;98792.19;4168936;28;20079;-72
2021/09/12 00:13:11;;;;;;;10.02;7.63;;;;;;;15.82;84.85;98791.78;4170105;28;20103;-72
2021/09/12 00:15:12;;;;;;;10.63;7.80;;;;;;;15.82;85.01;98777.03;4169910;28;20544;-72
2021/09/12 00:17:12;;;;;;;8.75;7.22;;;;;;;15.84;85.07;98786.56;4169744;28;20037;-72
2021/09/12 00:19:13;;;;;;;11.35;7.40;;;;;;;15.84;84.79;98786.56;4171154;28;20041;-72
2021/09/12 00:21:13;;;;;;;9.88;7.55;;;;;;;15.82;84.61;98780.63;4169403;28;20037;-72
2021/09/12 00:23:14;;;;;;;10.45;8.20;;;;;;;15.85;84.84;98781.78;4168938;28;20376;-72
2021/09/12 00:25:14;;;;;;;9.75;8.25;;;;;;;15.83;85.06;98775.81;4170814;28;20052;-72
2021/09/12 00:27:14;;;;;;;10.50;7.93;;;;;;;15.79;84.89;98770.25;4168405;28;20041;-72
2021/09/12 00:29:16;;;;;;;11.88;7.72;;;;;;;15.81;84.92;98770.66;4169346;28;20098;-72
2021/09/12 00:31:17;;;;;;;10.57;7.72;;;;;;;15.79;85.10;98770.25;4169534;28;20029;-72
2021/09/12 00:33:17;;;;;;;8.40;7.25;;;;;;;15.79;84.83;98775.81;4167624;28;20045;-72
2021/09/12 00:35:17;;;;;;;7.93;6.53;;;;;;;15.80;84.71;98771.84;4169498;28;20387;-72
2021/09/12 00:37:18;;;;;;;9.20;7.28;;;;;;;15.82;84.36;98774.25;4169664;28;20052;-72
2021/09/12 00:39:18;;;;;;;9.27;7.22;;;;;;;15.85;84.88;98768.63;4169964;28;20393;-72
2021/09/12 00:41:18;;;;;;;9.43;7.40;;;;;;;15.85;84.70;98773.41;4168453;28;20037;-72
2021/09/12 00:43:19;;;;;;;12.52;7.60;;;;;;;15.84;84.84;98778.19;4167301;28;20377;-72
2021/09/12 00:45:20;;;;;;;10.32;7.00;;;;;;;15.83;84.91;98773.03;4170096;28;20307;-72
2021/09/12 00:47:20;;;;;;;9.65;7.32;;;;;;;15.82;85.29;98768.66;4168951;28;20136;-72
2021/09/12 00:49:21;;;;;;;10.82;7.68;;;;;;;15.80;84.84;98757.09;4167912;28;20045;-72
2021/09/12 00:51:21;;;;;;;8.75;6.30;;;;;;;15.82;85.20;98765.88;4169553;28;20033;-72
2021/09/12 00:53:21;;;;;;;11.43;7.53;;;;;;;15.83;84.68;98773.03;4167392;28;20041;-72
2021/09/12 00:55:22;;;;;;;8.90;6.80;;;;;;;15.84;84.40;98772.63;4151231;28;20500;-72
2021/09/12 00:57:22;;;;;;;8.18;6.43;;;;;;;15.87;84.22;98765.44;4168253;28;20049;-72
2021/09/12 00:59:23;;;;;;;8.80;7.20;;;;;;;15.89;83.94;98755.47;4183515;28;20419;-72
2021/09/12 01:01:25;;;;;;;8.48;6.40;;;;;;;15.92;84.50;98768.59;4151536;28;20034;-72
2021/09/12 01:03:25;;;;;;;;;;;;;;;15.94;84.39;98757.81;4169268;28;20041;-72
2021/09/12 01:05:26;;;;;;;7.22;6.43;;;;;;;15.96;84.12;98757.41;4169597;28;20008;-72
2021/09/12 01:07:26;;;;;;;8.70;6.38;;;;;;;15.97;84.18;98764.56;4169002;28;20099;-72
2021/09/12 01:09:27;;;;;;;8.55;6.40;;;;;;;15.98;84.09;98764.19;4167545;28;20079;-72
2021/09/12 01:11:27;;;;;;;7.03;6.32;;;;;;;15.98;83.60;98758.59;4168432;28;20048;-72
2021/09/12 01:13:27;;;;;;;6.53;5.85;;;;;;;15.99;83.25;98760.19;4168054;28;20362;-72
2021/09/12 01:15:28;;;;;;;7.10;5.97;;;;;;;15.98;82.82;98755.03;4169014;28;20049;-72
2021/09/12 01:17:28;;;;;;;6.43;5.22;;;;;;;16.00;83.10;98758.19;4168592;28;20370;-72
2021/09/12 01:19:29;;;;;;;6.95;5.50;;;;;;;15.89;84.45;98752.69;4169498;28;20565;-72
2021/09/12 01:21:31;;;;;;;6.55;5.55;;;;;;;15.90;84.69;98764.63;4168828;28;20045;-72
2021/09/12 01:23:31;;;;;;;8.07;5.45;;;;;;;15.86;84.61;98756.25;4167594;28;20568;-72
2021/09/12 01:25:35;;;;;;;7.35;5.72;;;;;;;15.81;84.50;98755.91;4169330;28;20044;-72
2021/09/12 01:27:35;;;;;;;6.93;5.57;;;;;;;15.81;85.13;98753.13;4169178;28;20044;-72
2021/09/12 01:29:36;;;;;;;6.18;5.30;;;;;;;15.75;85.34;98751.94;4168262;28;20052;-72
2021/09/12 01:31:36;;;;;;;7.03;5.25;;;;;;;15.71;85.32;98758.31;4168310;28;20053;-72
2021/09/12 01:33:36;;;;;;;7.32;5.30;;;;;;;15.70;84.51;98753.16;4167431;28;20849;-72
2021/09/12 01:35:37;;;;;;;6.85;5.70;;;;;;;15.74;84.09;98753.94;4168857;28;20152;-72
2021/09/12 01:37:37;;;;;;;6.70;5.65;;;;;;;15.71;84.54;98751.94;4169319;28;20053;-72
2021/09/12 01:39:38;;;;;;;8.95;6.38;;;;;;;15.71;84.19;98743.59;4168602;28;20476;-72
2021/09/12 01:41:38;;;;;;;7.53;5.78;;;;;;;15.69;84.58;98757.16;4167990;28;20052;-72
2021/09/12 01:43:48;;;;;;;6.28;5.60;;;;;;;15.65;84.80;98753.59;4168269;28;20049;-72
2021/09/12 01:45:48;;;;;;;9.20;6.25;;;;;;;15.59;84.64;98758.75;4167574;28;20041;-72
2021/09/12 01:47:49;;;;;;;8.27;5.43;;;;;;;15.56;84.66;98750.41;4166962;28;20048;-72
2021/09/12 01:49:49;;;;;;;6.55;5.85;;;;;;;15.51;85.03;98756.41;4167095;28;20146;-72
2021/09/12 01:51:51;;;;;;;7.28;5.38;;;;;;;15.42;85.25;98757.63;4168915;28;20041;-72
2021/09/12 01:53:51;;;;;;;6.53;5.85;;;;;;;15.36;85.00;98756.44;4168134;28;20403;-72
2021/09/12 01:55:51;;;;;;;6.22;5.63;;;;;;;15.30;85.54;98763.63;4168716;28;20049;-72
2021/09/12 01:57:52;;;;;;;5.28;4.57;;;;;;;15.25;84.78;98755.69;4169434;28;20761;-72
2021/09/12 01:59:52;;;;;;;6.38;5.03;;;;;;;15.20;84.46;98760.88;4166984;28;20041;-72
2021/09/12 02:01:53;;;;;;;7.18;5.75;;;;;;;15.13;84.52;98761.69;4168364;28;20048;-72
2021/09/12 02:03:53;;;;;;;4.85;4.18;;;;;;;15.08;84.40;98771.25;4168038;28;20059;-72
2021/09/12 02:05:53;;;;;;;7.97;5.38;;;;;;;15.07;85.79;98772.47;4169086;28;20114;-72
2021/09/12 02:07:54;;;;;;;6.10;5.25;;;;;;;15.04;85.48;98764.09;4167570;28;20056;-72
2021/09/12 02:09:54;;;;;;;6.22;5.63;;;;;;;15.01;86.03;98770.47;4168028;28;20678;-72
2021/09/12 02:11:54;;;;;;;10.98;5.97;;;;;;;14.92;86.10;98773.69;4168916;28;20030;-72
2021/09/12 02:13:55;;;;;;;7.03;5.80;;;;;;;14.82;85.73;98775.28;4167364;28;20081;-72
2021/09/12 02:15:55;;;;;;;7.55;5.57;;;;;;;14.75;85.66;98775.28;4168095;28;20525;-72
2021/09/12 02:17:56;;;;;;;7.53;5.35;;;;;;;14.74;85.85;98767.34;4168067;28;20052;-72
2021/09/12 02:19:56;;;;;;;5.05;4.53;;;;;;;14.68;85.50;98760.56;4161622;28;20519;-72
2021/09/12 02:21:56;;;;;;;11.25;5.25;;;;;;;14.63;85.10;98760.94;4167371;28;20045;-72
2021/09/12 02:23:57;;;;;;;4.65;3.90;;;;;;;14.59;85.04;98755.41;4165722;28;20068;-72
2021/09/12 02:25:57;;;;;;;5.32;4.60;;;;;;;14.53;85.29;98757.78;4168284;28;20045;-72
2021/09/12 02:27:58;;;;;;;6.82;6.15;;;;;;;14.45;86.12;98750.63;4168001;28;20049;-72
2021/09/12 02:29:58;;;;;;;6.72;4.47;;;;;;;14.45;85.52;98761.75;4168956;28;20045;-72
2021/09/12 02:31:58;;;;;;;5.30;4.70;;;;;;;14.43;85.53;98761.31;4167796;28;20053;-72
2021/09/12 02:33:59;;;;;;;7.45;5.38;;;;;;;14.39;85.76;98763.28;4165844;28;20485;-72
2021/09/12 02:36:01;;;;;;;7.82;5.85;;;;;;;14.25;86.72;98761.31;4167813;28;20041;-72
2021/09/12 02:38:01;;;;;;;8.30;5.60;;;;;;;14.16;87.13;98766.47;4151313;28;20445;-72
2021/09/12 02:40:03;;;;;;;4.97;4.35;;;;;;;14.07;86.58;98766.06;4169078;28;20487;-72
2021/09/12 02:42:03;;;;;;;5.75;4.30;;;;;;;14.00;86.03;98764.06;4166356;28;20045;-72
2021/09/12 02:44:04;;;;;;;7.43;4.72;;;;;;;13.95;86.63;98760.84;4166074;28;20032;-72
2021/09/12 02:46:04;;;;;;;4.70;4.00;;;;;;;13.95;85.88;98766.41;4167411;28;20064;-72
2021/09/12 02:48:05;;;;;;;5.63;4.68;;;;;;;13.88;86.77;98769.16;4168441;28;20048;-72
2021/09/12 02:50:05;;;;;;;6.03;3.60;;;;;;;13.86;86.02;98766.00;4168315;28;20416;-72
2021/09/12 02:52:07;;;;;;;5.03;4.22;;;;;;;13.83;86.20;98766.78;4168703;28;20025;-72
2021/09/12 02:54:07;;;;;;;10.48;5.40;;;;;;;13.74;86.69;98769.94;4170127;28;20083;-72
2021/09/12 02:56:08;;;;;;;6.50;5.47;;;;;;;13.67;87.15;98775.47;4167940;28;20032;-72
2021/09/12 02:58:08;;;;;;;4.57;4.05;;;;;;;13.61;87.27;98772.25;4170298;28;20032;-72
2021/09/12 03:00:09;;;;;;;6.63;4.60;;;;;;;13.55;87.20;98770.25;4168528;28;20078;-72
2021/09/12 03:02:09;;;;;;;4.32;3.88;;;;;;;13.54;86.94;98765.88;4168406;28;20032;-72
2021/09/12 03:04:09;;;;;;;5.28;4.72;;;;;;;13.51;87.76;98763.88;4168876;28;20033;-72
2021/09/12 03:06:10;;;;;;;7.30;4.40;;;;;;;13.47;87.60;98749.97;4169527;28;20040;-72
2021/09/12 03:08:10;;;;;;;7.35;5.18;;;;;;;13.54;87.41;98754.75;4168955;28;20044;-72
2021/09/12 03:10:11;;;;;;;7.25;4.60;;;;;;;13.56;87.56;98769.06;4169338;28;20786;-72
2021/09/12 03:12:11;;;;;;;6.97;4.43;;;;;;;13.55;87.34;98767.47;4169061;28;20034;-72
2021/09/12 03:14:11;;;;;;;10.32;4.65;;;;;;;13.53;87.08;98761.50;4168385;28;20036;-72
2021/09/12 03:16:12;;;;;;;7.32;3.67;;;;;;;13.56;86.89;98767.06;4167500;28;20669;-72
2021/09/12 03:18:12;;;;;;;8.48;4.63;;;;;;;13.53;86.93;98759.53;4168523;28;20394;-72
2021/09/12 03:20:13;;;;;;;4.90;3.63;;;;;;;13.51;87.05;98761.09;4168109;28;20045;-72
2021/09/12 03:22:13;;;;;;;3.42;2.53;;;;;;;13.49;86.62;98753.97;4168081;28;20401;-72
2021/09/12 03:24:13;;;;;;;4.45;3.88;;;;;;;13.44;86.06;98750.75;4168662;28;20589;-72
2021/09/12 03:26:14;;;;;;;8.07;5.28;;;;;;;13.37;87.14;98754.28;4169007;28;20041;-72
2021/09/12 03:28:14;;;;;;;5.82;4.50;;;;;;;13.32;87.52;98760.25;4169935;28;20508;-72
2021/09/12 03:30:14;;;;;;;6.75;5.35;;;;;;;13.26;87.39;98755.44;4167673;28;20028;-72
2021/09/12 03:32:15;;;;;;;5.38;3.63;;;;;;;13.24;87.58;98760.56;4167652;28;20028;-72
2021/09/12 03:34:15;;;;;;;4.88;3.67;;;;;;;13.15;87.29;98753.34;4169142;28;20045;-72
2021/09/12 03:36:16;;;;;;;7.85;5.47;;;;;;;13.09;88.38;98752.13;4165904;28;20039;-72
2021/09/12 03:38:16;;;;;;;11.35;6.00;;;;;;;13.06;89.43;98761.22;4169578;28;20392;-72
2021/09/12 03:40:16;;;;;;;6.57;5.10;;;;;;;13.04;89.43;98758.06;4166719;28;20044;-72
2021/09/12 03:42:17;;;;;;;8.85;4.88;;;;;;;12.99;89.57;98761.22;4168413;28;20028;-72
2021/09/12 03:44:17;;;;;;;6.00;4.70;;;;;;;12.95;89.78;98760.38;4166282;28;20086;-72
2021/09/12 03:46:18;;;;;;;8.55;5.68;;;;;;;12.92;89.94;98750.06;4168000;28;20845;-72
2021/09/12 03:48:18;;;;;;;8.80;6.25;;;;;;;12.87;89.87;98750.41;4166769;28;20037;-72
2021/09/12 03:50:19;;;;;;;8.05;5.22;;;;;;;12.87;89.73;98748.44;4168745;28;20066;-72
2021/09/12 03:52:19;;;;;;;8.73;5.00;;;;;;;12.92;89.07;98744.50;4169487;28;20173;-72
2021/09/12 03:54:20;;;;;;;6.85;4.15;;;;;;;12.93;88.37;98735.78;4166790;28;20605;-72
2021/09/12 03:56:20;;;;;;;7.13;4.43;;;;;;;12.94;87.38;98731.81;4168061;28;20660;-72
2021/09/12 03:58:21;;;;;;;5.50;4.18;;;;;;;12.88;87.66;98738.13;4169385;28;20114;-72
2021/09/12 04:00:21;;;;;;;5.20;4.70;;;;;;;12.79;88.19;98744.00;4169462;28;20048;-72
2021/09/12 04:02:21;;;;;;;4.80;4.03;;;;;;;12.75;88.15;98734.88;4170471;28;20048;-72
2021/09/12 04:04:22;;;;;;;5.50;3.50;;;;;;;12.69;87.57;98730.06;4169500;28;20044;-72
2021/09/12 04:06:22;;;;;;;4.63;3.92;;;;;;;12.70;87.56;98737.19;4170512;28;20138;-72
2021/09/12 04:08:22;;;;;;;3.47;3.08;;;;;;;12.68;87.68;98723.72;4169768;28;20048;-72
2021/09/12 04:10:23;;;;;;;6.07;4.30;;;;;;;12.64;87.46;98732.00;4169949;28;20292;-72
2021/09/12 04:12:23;;;;;;;5.25;4.35;;;;;;;12.58;87.64;98733.56;4170172;28;20037;-72
2021/09/12 04:14:24;;;;;;;5.95;5.10;;;;;;;12.50;88.38;98726.34;4169209;28;20736;-72
2021/09/12 04:16:24;;;;;;;5.50;4.43;;;;;;;12.46;88.24;98727.50;4170700;28;20056;-72
2021/09/12 04:18:24;;;;;;;4.25;3.25;;;;;;;12.42;87.70;98721.94;4170920;28;20098;-72
2021/09/12 04:20:25;;;;;;;5.43;4.40;;;;;;;12.47;87.59;98718.00;4170661;28;20037;-72
2021/09/12 04:22:25;;;;;;;3.15;2.72;;;;;;;12.41;87.58;98714.75;4169017;28;20115;-72
2021/09/12 04:24:25;;;;;;;7.32;3.53;;;;;;;12.37;87.08;98725.06;4169908;28;20049;-72
2021/09/12 04:26:26;;;;;;;4.65;3.53;;;;;;;12.32;87.41;98725.41;4169342;28;20037;-72
2021/09/12 04:28:26;;;;;;;6.45;4.75;;;;;;;12.23;87.99;98722.94;4169827;28;20159;-72
2021/09/12 04:30:26;;;;;;;5.82;4.22;;;;;;;12.15;88.62;98724.06;4169651;28;20669;-72
2021/09/12 04:32:27;;;;;;;4.70;4.07;;;;;;;12.12;89.42;98727.63;4169588;28;20029;-72
2021/09/12 04:34:27;;;;;;;6.75;4.85;;;;;;;12.14;89.82;98730.78;4169718;28;20033;-72
2021/09/12 04:36:28;;;;;;;5.80;4.03;;;;;;;12.07;90.29;98723.19;4170505;28;20052;-72
2021/09/12 04:38:28;;;;;;;7.30;4.40;;;;;;;12.06;89.76;98738.25;4168720;28;20510;-72
2021/09/12 04:40:28;;;;;;;4.18;3.55;;;;;;;12.03;89.92;98735.44;4170276;28;20049;-72
2021/09/12 04:42:29;;;;;;;3.97;3.58;;;;;;;11.98;90.17;98738.56;4168706;28;20303;-72
2021/09/12 04:44:30;;;;;;;7.53;3.47;;;;;;;11.94;90.13;98749.63;4169708;28;20041;-72
2021/09/12 04:46:30;;;;;;;4.82;3.30;;;;;;;11.88;89.97;98736.47;4166858;28;20489;-72
2021/09/12 04:48:30;;;;;;;5.63;3.63;;;;;;;11.91;89.98;98735.72;4166559;28;20037;-72
2021/09/12 04:50:31;;;;;;;5.95;3.78;;;;;;;11.94;89.38;98746.06;4169636;28;20098;-72
2021/09/12 04:52:31;;;;;;;5.03;2.92;;;;;;;11.95;88.84;98740.13;4168375;28;20048;-72
2021/09/12 04:54:32;;;;;;;4.30;2.50;;;;;;;11.91;88.01;98738.47;4167298;28;20677;-72
2021/09/12 04:56:32;;;;;;;6.63;3.53;;;;;;;11.93;87.86;98745.25;4169257;28;20334;-72
2021/09/12 04:58:32;;;;;;;9.32;3.40;;;;;;;11.96;88.26;98738.94;4170196;28;20040;-72
2021/09/12 05:00:33;;;;;;;11.23;3.60;;;;;;;11.93;87.83;98748.03;4168834;28;20389;-72
2021/09/12 05:02:33;;;;;;;8.25;3.63;;;;;;;11.87;87.88;98748.75;4169094;28;20049;-72
2021/09/12 05:04:34;;;;;;;5.35;3.67;;;;;;;11.79;88.49;98745.88;4169210;28;20431;-72
2021/09/12 05:06:34;;;;;;;4.00;3.30;;;;;;;11.80;88.67;98741.94;4168128;28;20525;-72
2021/09/12 05:08:35;;;;;;;5.85;3.13;;;;;;;11.78;87.40;98738.72;4169835;28;20090;-72
2021/09/12 05:10:35;;;;;;;7.72;4.35;;;;;;;11.74;88.06;98748.19;4168992;28;20696;-71
2021/09/12 05:12:35;;;;;;;4.53;3.58;;;;;;;11.74;88.63;98748.19;4169358;28;20037;-72
2021/09/12 05:14:36;;;;;;;4.85;3.60;;;;;;;11.81;88.84;98749.09;4167356;28;20044;-72
2021/09/12 05:16:36;;;;;;;6.78;3.25;;;;;;;11.86;88.86;98745.19;4168438;28;20475;-72
2021/09/12 05:18:37;;;;;;;4.00;2.40;;;;;;;11.87;87.51;98748.75;4170066;28;20068;-72
2021/09/12 05:20:37;;;;;;;4.07;3.65;;;;;;;11.93;87.46;98759.13;4168517;28;20041;-72
2021/09/12 05:22:38;;;;;;;4.85;3.40;;;;;;;11.91;87.58;98764.22;4167881;28;20333;-72
2021/09/12 05:24:38;;;;;;;3.67;3.00;;;;;;;11.96;87.78;98760.34;4168873;28;20040;-72
2021/09/12 05:26:39;;;;;;;3.65;2.80;;;;;;;11.99;87.47;98763.13;4169539;28;20051;-72
2021/09/12 05:28:39;;;;;;;4.72;3.38;;;;;;;12.06;86.66;98767.97;4168669;28;20049;-72
2021/09/12 05:30:39;;;;;;;5.88;3.10;;;;;;;12.17;86.88;98765.31;4169297;28;20056;-72
2021/09/12 05:32:45;;;;;;;4.70;3.58;;;;;;;12.17;86.53;98766.09;4167233;28;20322;-72
2021/09/12 05:34:46;;;;;;;5.65;4.30;;;;;;;12.11;86.14;98758.50;4166835;28;20128;-72
2021/09/12 05:36:46;;;;;;;6.57;4.63;;;;;;;12.06;86.41;98771.53;4168372;28;20048;-72
2021/09/12 05:38:46;;;;;;;6.05;3.67;;;;;;;11.97;86.82;98773.00;4169289;28;20052;-72
2021/09/12 05:40:47;;;;;;;5.15;4.00;;;;;;;11.88;87.35;98770.53;4167808;28;20041;-72
2021/09/12 05:42:47;;;;;;;5.22;4.07;;;;;;;11.84;88.23;98771.69;4168692;28;20048;-72
2021/09/12 05:44:47;;;;;;;7.75;5.47;;;;;;;11.89;88.86;98769.38;4167665;28;20451;-71
2021/09/12 05:46:51;;;;;;;5.35;4.53;;;;;;;11.96;88.93;98771.44;4168583;28;20041;-72
2021/09/12 05:48:51;;;;;;;5.55;4.68;;;;;;;12.08;88.44;98771.13;4167168;28;20631;-72
2021/09/12 05:50:52;;;;;;;6.53;4.72;;;;;;;12.16;88.18;98777.56;4168811;28;20201;-71
2021/09/12 05:52:52;;;;;;;5.70;5.10;;;;;;;12.25;87.82;98783.63;4169246;28;20393;-72
2021/09/12 05:54:52;;;;;;;6.03;4.88;;;;;;;12.33;87.11;98783.31;4166227;28;20045;-72
2021/09/12 05:56:53;;;;;;;13.00;5.50;;;;;;;12.45;87.00;98789.75;4168435;28;20049;-72
2021/09/12 05:58:53;;;;;;;7.80;5.40;;;;;;;12.55;86.39;98784.28;4168874;28;20045;-72
2021/09/12 06:00:53;;;;;;;8.07;4.32;;;;;;;12.62;86.16;98781.56;4169320;28;20389;-72
2021/09/12 06:02:54;;;;;;;7.55;4.68;;;;;;;12.74;85.93;98783.22;4167796;28;20421;-72
2021/09/12 06:04:54;;;;;;;5.82;4.18;;;;;;;12.86;85.36;98784.91;4168138;28;20045;-72
2021/09/12 06:06:55;;;;;;;5.72;4.50;;;;;;;12.92;85.32;98789.72;4168568;28;20041;-72
2021/09/12 06:08:55;;;;;;;9.77;5.10;;;;;;;12.97;85.61;98788.56;4168759;28;20056;-72
2021/09/12 06:10:55;;;;;;;7.63;5.35;;;;;;;13.05;85.23;98792.97;4169145;28;20316;-71
2021/09/12 06:12:56;;;;;;;8.98;4.80;;;;;;;13.11;85.35;98794.22;4168329;28;20185;-72
2021/09/12 06:14:56;;;;;;;6.65;5.00;;;;;;;13.14;85.40;98795.41;4166175;28;20041;-72
2021/09/12 06:16:56;;;;;;;6.60;5.32;;;;;;;13.18;86.00;98796.25;4168730;28;20478;-72
2021/09/12 06:18:57;;;;;;;6.82;5.65;;;;;;;13.19;87.03;98797.84;4170498;28;20107;-72
2021/09/12 06:20:57;;;;;;;8.60;5.80;;;;;;;13.24;86.55;98796.69;4172433;28;20370;-72
2021/09/12 06:22:58;;;;;;;6.15;4.50;;;;;;;13.28;85.38;98792.75;4170897;28;20033;-72
2021/09/12 06:24:58;;;;;;;9.27;5.30;;;;;;;13.34;86.05;98798.75;4171205;28;20324;-72
2021/09/12 06:26:58;;;;;;;11.07;6.43;;;;;;;13.35;85.62;98795.56;4172310;28;20531;-72
2021/09/12 06:28:59;;;;;;;7.53;5.03;;;;;;;13.44;85.24;98795.22;4170521;28;20118;-72
2021/09/12 06:30:59;;;;;;;9.07;4.80;;;;;;;13.52;84.63;98799.63;4171507;28;20076;-72
2021/09/12 06:32:59;;;;;;;5.22;4.43;;;;;;;13.60;84.59;98792.91;4172102;28;20041;-72
2021/09/12 06:35:00;;;;;;;5.60;4.82;;;;;;;13.68;83.94;98796.53;4171984;28;20045;-72
2021/09/12 06:37:00;;;;;;;8.07;6.65;;;;;;;13.78;84.77;98801.31;4171712;28;20420;-72
2021/09/12 06:39:01;;;;;;;6.75;5.45;;;;;;;13.84;85.00;98797.00;4172171;28;20055;-72
2021/09/12 06:41:01;;;;;;;6.72;5.20;;;;;;;13.90;85.80;98797.38;4170814;28;20045;-72
2021/09/12 06:43:01;;;;;;;6.20;4.60;;;;;;;13.95;86.10;98794.22;4171654;28;20041;-72
2021/09/12 06:45:02;;;;;;;7.20;5.40;;;;;;;14.01;85.50;98799.03;4171742;28;20048;-72
2021/09/12 06:47:03;;;;;;;8.38;5.88;;;;;;;14.07;85.99;98799.44;4171654;28;20164;-72
2021/09/12 06:49:03;;;;;;;6.75;5.28;;;;;;;14.14;85.81;98795.88;4169588;28;20040;-72
2021/09/12 06:51:03;;;;;;;9.07;5.18;;;;;;;14.15;85.20;98791.88;4170814;28;20052;-71
2021/09/12 06:53:04;;;;;;;8.60;5.05;;;;;;;14.17;84.98;98798.66;4171618;28;20037;-72
2021/09/12 06:55:05;;;;;;;12.45;5.93;;;;;;;14.21;85.71;98805.03;4171421;28;20891;-72
2021/09/12 06:57:05;;;;;;;10.23;5.78;;;;;;;14.21;84.50;98798.66;4171262;28;20044;-72
2021/09/12 06:59:05;;;;;;;13.10;7.57;;;;;;;14.22;85.90;98801.03;4172289;28;20767;-72
2021/09/12 07:01:06;;;;;;;12.35;6.93;;;;;;;14.19;86.23;98793.50;4169600;28;20041;-72
2021/09/12 07:03:06;;;;;;;11.32;7.03;;;;;;;14.24;86.04;98801.47;4170831;28;20049;-72
2021/09/12 07:05:07;;;;;;;8.05;5.78;;;;;;;14.30;85.54;98799.88;4170707;28;20138;-72
2021/09/12 07:07:08;;;;;;;8.52;5.45;;;;;;;14.35;85.27;98793.13;4170364;28;20127;-72
2021/09/12 07:09:08;;;;;;;11.38;5.72;;;;;;;14.38;85.65;98803.47;4170006;28;20044;-72
2021/09/12 07:11:13;;;;;;;14.80;7.20;;;;;;;14.39;85.75;98795.91;4170493;28;20056;-72
2021/09/12 07:13:13;;;;;;;13.90;7.00;;;;;;;14.42;85.70;98801.50;4170053;28;20282;-72
2021/09/12 07:15:13;;;;;;;10.27;7.30;;;;;;;14.48;85.29;98793.56;4170327;28;20107;-72
2021/09/12 07:17:14;;;;;;;14.95;6.70;;;;;;;14.58;85.37;98803.94;4170782;28;20083;-72
2021/09/12 07:19:14;;;;;;;17.00;7.70;;;;;;;14.67;85.50;98804.31;4169985;28;20041;-72
2021/09/12 07:21:15;;;;;;;13.10;8.13;;;;;;;14.74;85.31;98801.56;4169210;28;20068;-72
2021/09/12 07:23:15;;;;;;;9.95;7.82;;;;;;;14.80;85.05;98810.28;4170181;28;20049;-72
2021/09/12 07:25:15;;;;;;;17.80;8.68;;;;;;;14.87;85.21;98808.28;4169634;28;20057;-72
2021/09/12 07:27:16;;;;;;;9.98;8.25;;;;;;;14.94;84.58;98806.69;4170408;28;20045;-72
2021/09/12 07:29:16;;;;;;;11.73;8.32;;;;;;;14.96;84.76;98813.47;4169070;28;20110;-72
2021/09/12 07:31:17;;;;;;;13.20;7.60;;;;;;;15.03;84.86;98813.47;4170405;28;20506;-72
2021/09/12 07:33:17;;;;;;;12.25;8.85;;;;;;;15.06;84.51;98814.63;4171019;28;20049;-72
2021/09/12 07:35:18;;;;;;;10.20;7.22;;;;;;;15.14;83.70;98811.47;4170651;28;20384;-72
2021/09/12 07:37:18;;;;;;;12.73;8.02;;;;;;;15.25;84.07;98810.66;4170233;28;20041;-72
2021/09/12 07:39:18;;;;;;;15.73;10.60;;;;;;;15.45;83.43;98822.94;4171665;28;20231;-72
2021/09/12 07:41:19;;;;;;;12.05;8.82;;;;;;;15.78;81.14;98820.88;4170516;28;20041;-72
2021/09/12 07:43:20;;;;;;;13.27;9.57;;;;;;;15.92;81.78;98813.25;4167740;28;20045;-72
2021/09/12 07:45:20;;;;;;;12.73;8.93;;;;;;;16.07;80.85;98818.75;4170810;28;20379;-72
2021/09/12 07:47:20;;;;;;;14.18;9.73;;;;;;;16.22;80.40;98818.28;4171537;28;20055;-72
2021/09/12 07:49:21;;;;;;;11.93;9.10;;;;;;;16.41;78.98;98818.97;4171072;28;20378;-72
2021/09/12 07:51:21;;;;;;;10.40;8.50;;;;;;;16.51;78.66;98816.09;4169906;28;20042;-72
2021/09/12 07:53:22;;;;;;;11.55;8.73;;;;;;;16.61;79.07;98824.81;4170058;28;20056;-72
2021/09/12 07:55:22;;;;;;;12.93;9.30;;;;;;;16.72;78.57;98820.78;4167761;28;20094;-72
2021/09/12 07:57:22;;;;;;;17.63;8.48;;;;;;;16.90;77.92;98823.41;4169623;28;20102;-72
2021/09/12 07:59:23;;;;;;;10.93;8.52;;;;;;;16.99;77.88;98825.72;4171667;28;20310;-72
2021/09/12 08:01:23;;;;;;;11.25;7.90;;;;;;;17.09;75.87;98828.44;4170380;28;20048;-72
2021/09/12 08:03:24;;;;;;;11.70;8.38;;;;;;;17.19;75.64;98837.13;4168874;28;20049;-72
2021/09/12 08:05:24;;;;;;;13.40;7.53;;;;;;;17.21;74.80;98832.72;4170755;28;20509;-72
2021/09/12 08:07:25;;;;;;;11.27;8.10;;;;;;;17.30;75.91;98832.25;4169233;28;20088;-72
2021/09/12 08:09:26;;;;;;;11.18;8.23;;;;;;;17.39;75.17;98827.75;4169170;28;20045;-72
2021/09/12 08:11:26;;;;;;;9.65;7.72;;;;;;;17.19;75.45;98828.75;4169346;28;20072;-72
2021/09/12 08:13:26;;;;;;;11.70;8.15;;;;;;;16.97;76.04;98834.53;4168896;28;20049;-72
2021/09/12 08:15:27;;;;;;;10.82;8.15;;;;;;;16.89;76.20;98835.00;4170265;28;20409;-72
2021/09/12 08:17:27;;;;;;;12.77;8.30;;;;;;;16.78;76.68;98833.06;4169666;28;20053;-72
2021/09/12 08:19:27;;;;;;;11.52;8.02;;;;;;;16.71;76.74;98829.53;4170673;28;20405;-72
2021/09/12 08:21:28;;;;;;;10.27;7.43;;;;;;;16.63;76.24;98823.19;4170030;28;20330;-72
2021/09/12 08:23:28;;;;;;;10.02;7.15;;;;;;;16.72;76.03;98829.16;4168060;28;20392;-72
2021/09/12 08:25:29;;;;;;;9.85;7.47;;;;;;;16.89;75.73;98830.22;4170686;28;20393;-72
2021/09/12 08:27:29;;;;;;;10.05;7.57;;;;;;;17.07;76.25;98830.06;4168681;28;20053;-72
2021/09/12 08:29:29;;;;;;;9.95;6.35;;;;;;;17.20;75.70;98833.13;4169633;28;20106;-72
2021/09/12 08:31:30;;;;;;;10.55;7.88;;;;;;;17.26;75.06;98828.69;4170304;28;20247;-72
2021/09/12 08:33:30;;;;;;;9.65;6.85;;;;;;;17.24;73.45;98829.09;4170150;28;20374;-72
2021/09/12 08:35:30;;;;;;;8.57;6.95;;;;;;;17.31;74.07;98831.03;4170084;28;20052;-72
2021/09/12 08:37:31;;;;;;;7.45;6.28;;;;;;;17.37;74.18;98832.16;4170540;28;20354;-72
2021/09/12 08:39:31;;;;;;;8.77;6.60;;;;;;;17.39;73.99;98827.75;4170691;28;20305;-72
2021/09/12 08:41:32;;;;;;;9.57;6.55;;;;;;;17.44;73.83;98834.09;4169272;28;20052;-72
2021/09/12 08:43:33;;;;;;;8.57;6.93;;;;;;;17.46;73.21;98834.47;4168951;28;20059;-72
2021/09/12 08:45:33;;;;;;;7.97;5.93;;;;;;;17.50;73.31;98838.81;4152632;28;20057;-72
2021/09/12 08:47:34;;;;;;;9.45;7.10;;;;;;;17.47;73.71;98825.66;4169573;28;20056;-72
2021/09/12 08:49:34;;;;;;;8.35;6.72;;;;;;;17.54;73.98;98825.59;4168275;28;20220;-72
2021/09/12 08:51:35;;;;;;;11.40;6.70;;;;;;;17.71;73.99;98837.00;4150130;28;20075;-72
2021/09/12 08:53:35;;;;;;;10.25;6.60;;;;;;;17.79;74.35;98833.75;4167154;28;20071;-72
2021/09/12 08:55:35;;;;;;;10.90;7.05;;;;;;;17.94;73.35;98840.72;4167750;28;20048;-72
2021/09/12 08:57:46;;;;;;;8.65;6.75;;;;;;;18.04;71.99;98844.63;4167199;28;20504;-72
2021/09/12 08:59:50;;;;;;;10.15;6.75;;;;;;;18.13;72.35;98839.31;4165912;28;20049;-72
2021/09/12 09:01:53;;;;;;;8.32;6.32;;;;;;;18.24;71.72;98847.56;4168777;28;20041;-72
2021/09/12 09:03:57;;;;;;;;;;;;;;;18.21;71.76;98842.81;4166927;28;20629;-72
2021/09/12 09:05:57;;;;;;;8.85;6.30;;;;;;;18.18;71.79;98832.44;4167395;28;19927;-72
2021/09/12 09:08:03;;;;;;;6.78;5.53;;;;;;;18.15;71.62;98833.28;4165940;28;20045;-72
2021/09/12 09:10:18;;;;;;;8.38;6.00;;;;;;;18.27;72.12;98843.13;4166256;28;20045;-72
2021/09/12 09:12:29;;;;;;;8.75;6.00;;;;;;;18.44;72.09;98830.88;4166735;28;20024;-73
2021/09/12 09:14:31;;;;;;;7.80;6.13;;;;;;;18.54;70.46;98832.75;4166519;28;20057;-72
2021/09/12 09:16:31;;;;;;;7.20;5.82;;;;;;;18.63;70.43;98830.19;4169267;28;20049;-72
2021/09/12 09:18:39;;;;;;;6.82;5.65;;;;;;;18.73;68.50;98831.28;4168209;28;20048;-72
2021/09/12 09:20:40;;;;;;;7.63;5.82;;;;;;;18.65;67.94;98832.56;4167949;28;20037;-72
2021/09/12 09:22:42;;;;;;;7.80;6.28;;;;;;;18.73;70.51;98822.88;4169003;28;20389;-72
2021/09/12 09:24:42;;;;;;;8.70;6.93;;;;;;;18.84;68.71;98828.28;4163314;28;20725;-72
2021/09/12 09:26:46;;;;;;;8.07;5.80;;;;;;;19.03;68.89;98828.38;4167423;28;20052;-72